Time;durP1;ratioP1;P1;durP2;ratioP2;P2;SDS_P1;SDS_P2;PMS_P1;PMS_P2;Temp;Humidity;BMP_temperature;BMP_pressure;BME280_temperature;BME280_humidity;BME280_pressure;Samples;Min_cycle;Max_cycle;Signal;HPM_P1;HPM_P2
2022/06/02 00:01:08;;;;;;;12.20;10.50;;;;;;;;;;5077874;28;20121;-60
2022/06/02 00:03:47;;;;;;;11.20;10.00;;;;;;;;;;5084123;28;20907;-60
2022/06/02 00:06:32;;;;;;;12.55;10.98;;;;;;;;;;5087747;28;20012;-60
2022/06/02 00:09:14;;;;;;;14.30;11.05;;;;;;;;;;5083338;28;20494;-61
2022/06/02 00:11:53;;;;;;;14.43;11.95;;;;;;;;;;5087077;28;20103;-60
2022/06/02 00:14:30;;;;;;;13.30;11.18;;;;;;;;;;5076458;28;20117;-60
2022/06/02 00:17:07;;;;;;;12.57;10.73;;;;;;;;;;5090482;28;20035;-59
2022/06/02 00:19:41;;;;;;;13.00;11.45;;;;;;;;;;5091362;28;20032;-60
2022/06/02 00:22:13;;;;;;;11.93;10.60;;;;;;;;;;5090570;28;21280;-60
2022/06/02 00:24:53;;;;;;;13.27;10.27;;;;;;;;;;5092027;28;20020;-60
2022/06/02 00:27:22;;;;;;;12.30;10.35;;;;;;;;;;5094873;28;20035;-60
2022/06/02 00:29:57;;;;;;;14.93;11.48;;;;;;;;;;5088294;28;20193;-60
2022/06/02 00:32:28;;;;;;;13.60;10.30;;;;;;;;;;5085392;28;20033;-60
2022/06/02 00:34:54;;;;;;;12.30;10.85;;;;;;;;;;5084011;28;20685;-60
2022/06/02 00:37:20;;;;;;;13.45;11.80;;;;;;;;;;5077741;28;20021;-60
2022/06/02 00:39:47;;;;;;;13.43;10.88;;;;;;;;;;5080535;28;20105;-60
2022/06/02 00:42:29;;;;;;;12.95;11.13;;;;;;;;;;5087503;28;20036;-60
2022/06/02 00:44:55;;;;;;;13.82;11.43;;;;;;;;;;5082646;28;20107;-60
2022/06/02 00:47:28;;;;;;;12.80;10.75;;;;;;;;;;5077915;28;20315;-59
2022/06/02 00:50:06;;;;;;;12.30;10.30;;;;;;;;;;5091776;28;20021;-60
2022/06/02 00:52:44;;;;;;;13.23;10.10;;;;;;;;;;5090164;28;20392;-60
2022/06/02 00:58:08;;;;;;;13.05;11.48;;;;;;;;;;5084070;28;20047;-60
2022/06/02 01:00:55;;;;;;;12.57;10.73;;;;;;;;;;5095290;28;20024;-59
2022/06/02 01:03:25;;;;;;;13.98;11.15;;;;;;;;;;5093368;28;20016;-60
2022/06/02 01:05:59;;;;;;;14.18;11.23;;;;;;;;;;5086006;28;20023;-60
2022/06/02 01:08:25;;;;;;;12.27;10.95;;;;;;;;;;5084249;28;20044;-59
2022/06/02 01:10:56;;;;;;;16.33;11.52;;;;;;;;;;5082502;28;20064;-60
2022/06/02 01:13:22;;;;;;;13.02;11.50;;;;;;;;;;5091280;28;20030;-61
2022/06/02 01:16:06;;;;;;;13.70;11.30;;;;;;;;;;5094310;28;20089;-60
2022/06/02 01:18:40;;;;;;;13.35;11.25;;;;;;;;;;5077180;28;20420;-60
2022/06/02 01:21:06;;;;;;;12.68;10.85;;;;;;;;;;5085986;28;20023;-59
2022/06/02 01:23:35;;;;;;;13.75;11.23;;;;;;;;;;5090914;28;20395;-59
2022/06/02 01:26:17;;;;;;;14.07;11.68;;;;;;;;;;5087761;27;20375;-60
2022/06/02 01:29:01;;;;;;;16.75;11.80;;;;;;;;;;5079222;28;20036;-60
2022/06/02 01:31:30;;;;;;;14.43;11.63;;;;;;;;;;5080496;28;20122;-59
2022/06/02 01:34:15;;;;;;;12.40;10.43;;;;;;;;;;5089518;28;20479;-60
2022/06/02 01:36:44;;;;;;;14.98;12.13;;;;;;;;;;5094703;28;20055;-60
2022/06/02 01:39:25;;;;;;;13.65;11.32;;;;;;;;;;5080666;28;20036;-60
2022/06/02 01:42:10;;;;;;;15.18;12.63;;;;;;;;;;5086224;28;20514;-60
2022/06/02 01:44:55;;;;;;;14.98;11.68;;;;;;;;;;5092657;28;20540;-60
2022/06/02 01:47:29;;;;;;;12.48;10.90;;;;;;;;;;5086968;28;20428;-59
2022/06/02 01:50:13;;;;;;;13.20;11.32;;;;;;;;;;5080151;28;20031;-59
2022/06/02 01:52:51;;;;;;;14.40;11.27;;;;;;;;;;5079191;28;20038;-60
2022/06/02 01:55:27;;;;;;;14.95;12.13;;;;;;;;;;5079312;28;20040;-60
2022/06/02 01:58:08;;;;;;;16.08;12.07;;;;;;;;;;5086915;28;20095;-59
2022/06/02 02:00:35;;;;;;;15.50;12.52;;;;;;;;;;5084325;28;20044;-59
2022/06/02 02:03:15;;;;;;;14.75;12.13;;;;;;;;;;5095492;28;20027;-59
2022/06/02 02:05:52;;;;;;;17.73;12.85;;;;;;;;;;5080178;28;20012;-59
2022/06/02 02:08:37;;;;;;;15.18;13.23;;;;;;;;;;5088006;28;20034;-59
2022/06/02 02:11:21;;;;;;;16.42;12.02;;;;;;;;;;5075883;28;20452;-58
2022/06/02 02:13:53;;;;;;;14.23;11.80;;;;;;;;;;5089031;28;20019;-60
2022/06/02 02:16:24;;;;;;;13.77;11.35;;;;;;;;;;5082436;28;20063;-58
2022/06/02 02:18:56;;;;;;;14.32;12.18;;;;;;;;;;5079495;28;20047;-59
2022/06/02 02:21:26;;;;;;;14.88;11.80;;;;;;;;;;5084172;28;20039;-59
2022/06/02 02:23:56;;;;;;;16.15;12.95;;;;;;;;;;5080672;28;20483;-59
2022/06/02 02:26:27;;;;;;;15.13;12.35;;;;;;;;;;5085875;28;20016;-58
2022/06/02 02:28:56;;;;;;;14.88;11.40;;;;;;;;;;5080692;28;20043;-59
2022/06/02 02:31:33;;;;;;;16.63;12.52;;;;;;;;;;5088130;28;20701;-59
2022/06/02 02:34:11;;;;;;;14.70;12.57;;;;;;;;;;5088417;28;20541;-60
2022/06/02 02:36:42;;;;;;;15.75;13.32;;;;;;;;;;5087923;28;20023;-59
2022/06/02 02:39:08;;;;;;;14.43;12.32;;;;;;;;;;5075462;28;20097;-59
2022/06/02 02:41:39;;;;;;;16.48;12.13;;;;;;;;;;5090270;28;20128;-58
2022/06/02 02:44:11;;;;;;;14.75;12.70;;;;;;;;;;5082198;28;20012;-59
2022/06/02 02:46:43;;;;;;;16.08;12.63;;;;;;;;;;5078699;28;20063;-59
2022/06/02 02:49:26;;;;;;;16.13;13.03;;;;;;;;;;5083857;28;20046;-59
2022/06/02 02:52:06;;;;;;;16.05;12.30;;;;;;;;;;5079372;28;20028;-59
2022/06/02 02:54:38;;;;;;;20.73;12.82;;;;;;;;;;5089335;28;20688;-59
2022/06/02 02:57:18;;;;;;;14.32;12.73;;;;;;;;;;5080855;28;20564;-59
2022/06/02 02:59:50;;;;;;;16.08;13.25;;;;;;;;;;5079809;28;20036;-59
2022/06/02 03:02:16;;;;;;;16.25;12.43;;;;;;;;;;5087813;28;20043;-59
2022/06/02 03:04:48;;;;;;;14.98;13.10;;;;;;;;;;5092053;28;20124;-60
2022/06/02 03:07:14;;;;;;;14.98;12.68;;;;;;;;;;5085277;28;20020;-59
2022/06/02 03:09:42;;;;;;;15.57;11.95;;;;;;;;;;5085866;28;20425;-57
2022/06/02 03:12:27;;;;;;;16.33;13.77;;;;;;;;;;5087493;28;20050;-59
2022/06/02 03:14:59;;;;;;;15.30;13.18;;;;;;;;;;5092583;28;20044;-60
2022/06/02 03:17:29;;;;;;;16.52;13.20;;;;;;;;;;5094822;28;20030;-59
2022/06/02 03:19:55;;;;;;;18.08;14.05;;;;;;;;;;5084686;28;20732;-59
2022/06/02 03:22:23;;;;;;;16.30;13.45;;;;;;;;;;5094255;28;20026;-59
2022/06/02 03:24:52;;;;;;;16.25;13.85;;;;;;;;;;5081471;28;20020;-60
2022/06/02 03:27:28;;;;;;;16.65;13.43;;;;;;;;;;5095315;28;20062;-60
2022/06/02 03:30:02;;;;;;;17.52;13.00;;;;;;;;;;5080780;28;20502;-58
2022/06/02 03:32:46;;;;;;;16.15;13.07;;;;;;;;;;5089815;28;20082;-59
2022/06/02 03:35:26;;;;;;;17.05;12.57;;;;;;;;;;5081855;28;20035;-59
2022/06/02 03:38:03;;;;;;;15.65;12.95;;;;;;;;;;5092350;28;20387;-59
2022/06/02 03:40:38;;;;;;;18.60;13.75;;;;;;;;;;5085257;28;20041;-59
2022/06/02 03:43:11;;;;;;;15.18;13.18;;;;;;;;;;5081269;28;20034;-59
2022/06/02 03:45:49;;;;;;;18.65;14.13;;;;;;;;;;5092305;28;20030;-60
2022/06/02 03:48:30;;;;;;;17.25;14.18;;;;;;;;;;5082028;28;20510;-59
2022/06/02 03:51:08;;;;;;;19.95;15.27;;;;;;;;;;5073602;28;20044;-58
2022/06/02 03:53:34;;;;;;;16.77;14.70;;;;;;;;;;5079735;28;20066;-59
2022/06/02 03:56:18;;;;;;;18.25;14.95;;;;;;;;;;5087915;28;20059;-59
2022/06/02 03:58:59;;;;;;;18.48;15.38;;;;;;;;;;5085816;28;20465;-58
2022/06/02 04:01:27;;;;;;;19.65;15.07;;;;;;;;;;5079636;28;20028;-59
2022/06/02 04:04:08;;;;;;;17.35;14.50;;;;;;;;;;5081827;27;20483;-59
2022/06/02 04:06:43;;;;;;;21.20;16.20;;;;;;;;;;5089602;28;20016;-60
2022/06/02 04:09:09;;;;;;;18.65;14.95;;;;;;;;;;5080767;28;20100;-60
2022/06/02 04:14:53;;;;;;;18.00;15.60;;;;;;;;;;5081752;28;20568;-58
2022/06/02 04:17:19;;;;;;;20.42;15.77;;;;;;;;;;5087866;28;20056;-60
2022/06/02 04:22:42;;;;;;;19.42;16.10;;;;;;;;;;5099108;28;20092;-59
2022/06/02 04:25:17;;;;;;;19.42;15.93;;;;;;;;;;5082875;28;20504;-59
2022/06/02 04:27:46;;;;;;;22.00;16.73;;;;;;;;;;5087161;28;20028;-61
2022/06/02 04:30:28;;;;;;;21.35;16.67;;;;;;;;;;5082205;28;20448;-60
2022/06/02 04:33:02;;;;;;;21.55;17.25;;;;;;;;;;5102850;28;20031;-58
2022/06/02 04:35:47;;;;;;;20.30;16.90;;;;;;;;;;5088353;28;20035;-60
2022/06/02 04:38:25;;;;;;;20.55;16.67;;;;;;;;;;5085764;28;20016;-60
2022/06/02 04:40:51;;;;;;;19.45;16.65;;;;;;;;;;5089215;28;20495;-60
2022/06/02 04:43:22;;;;;;;21.42;18.17;;;;;;;;;;5090000;28;20085;-59
2022/06/02 04:46:07;;;;;;;22.58;19.10;;;;;;;;;;5077228;28;20024;-60
2022/06/02 04:48:52;;;;;;;23.73;20.13;;;;;;;;;;5087170;28;20048;-58
2022/06/02 04:51:30;;;;;;;22.20;18.40;;;;;;;;;;5088701;28;20028;-59
2022/06/02 04:54:00;;;;;;;25.33;20.08;;;;;;;;;;5080654;28;20486;-58
2022/06/02 04:56:29;;;;;;;25.52;20.15;;;;;;;;;;5086749;28;20032;-59
2022/06/02 04:58:59;;;;;;;24.77;21.45;;;;;;;;;;5083134;28;20612;-58
2022/06/02 05:01:48;;;;;;;28.73;22.40;;;;;;;;;;5076939;28;20759;-58
2022/06/02 05:04:33;;;;;;;31.20;24.05;;;;;;;;;;5079603;28;20045;-59
2022/06/02 05:07:08;;;;;;;32.75;24.73;;;;;;;;;;5080106;28;20031;-58
2022/06/02 05:09:37;;;;;;;31.05;25.02;;;;;;;;;;5079804;28;20032;-57
2022/06/02 05:12:21;;;;;;;34.05;28.13;;;;;;;;;;5074175;28;20028;-59
2022/06/02 05:15:02;;;;;;;31.83;25.85;;;;;;;;;;5082180;28;20043;-59
2022/06/02 05:17:31;;;;;;;34.38;26.75;;;;;;;;;;5085512;28;20031;-58
2022/06/02 05:20:23;;;;;;;35.95;29.80;;;;;;;;;;5090667;28;20479;-58
2022/06/02 05:22:52;;;;;;;40.60;30.60;;;;;;;;;;5086414;28;20479;-58
2022/06/02 05:25:18;;;;;;;39.08;32.13;;;;;;;;;;5085844;28;20108;-59
2022/06/02 05:27:54;;;;;;;41.80;32.63;;;;;;;;;;5090889;28;20581;-59
2022/06/02 05:30:26;;;;;;;42.83;32.13;;;;;;;;;;5076771;28;20500;-58
2022/06/02 05:33:05;;;;;;;40.58;33.00;;;;;;;;;;5092109;28;20030;-58
2022/06/02 05:35:40;;;;;;;41.80;32.95;;;;;;;;;;5090137;28;20039;-58
2022/06/02 05:38:10;;;;;;;46.03;33.05;;;;;;;;;;5098423;28;20422;-58
2022/06/02 05:40:42;;;;;;;42.65;32.55;;;;;;;;;;5089423;28;20035;-58
2022/06/02 05:43:14;;;;;;;38.65;31.08;;;;;;;;;;5083815;28;20031;-58
2022/06/02 05:45:47;;;;;;;40.13;32.72;;;;;;;;;;5079977;28;20036;-59
2022/06/02 05:48:15;;;;;;;41.35;31.50;;;;;;;;;;5080158;28;20031;-58
2022/06/02 05:50:59;;;;;;;37.58;30.50;;;;;;;;;;5093411;28;20509;-59
2022/06/02 05:53:39;;;;;;;37.25;29.42;;;;;;;;;;5077502;28;20050;-58
2022/06/02 05:56:14;;;;;;;35.15;29.08;;;;;;;;;;5074653;28;20494;-59
2022/06/02 05:58:57;;;;;;;35.85;29.85;;;;;;;;;;5070382;28;20083;-59
2022/06/02 06:01:27;;;;;;;39.10;28.75;;;;;;;;;;5087804;28;20027;-58
2022/06/02 06:04:06;;;;;;;35.63;27.65;;;;;;;;;;5078859;28;20066;-59
2022/06/02 06:06:51;;;;;;;38.55;29.52;;;;;;;;;;5071798;28;20515;-59
2022/06/02 06:09:29;;;;;;;35.25;27.48;;;;;;;;;;5082969;28;20115;-58
2022/06/02 06:12:09;;;;;;;35.95;28.75;;;;;;;;;;5080783;28;20129;-58
2022/06/02 06:14:45;;;;;;;33.78;27.40;;;;;;;;;;5080612;28;20232;-58
2022/06/02 06:17:19;;;;;;;33.85;27.02;;;;;;;;;;5076600;28;20078;-59
2022/06/02 06:19:51;;;;;;;45.08;34.88;;;;;;;;;;5080038;28;20036;-57
2022/06/02 06:22:43;;;;;;;37.25;28.15;;;;;;;;;;5079745;28;20028;-57
2022/06/02 06:25:16;;;;;;;33.97;27.13;;;12.30;99.90;;;;;;5075851;28;20028;-56
2022/06/02 06:27:49;;;;;;;33.67;28.37;;;;;;;;;;5083347;28;20051;-57
2022/06/02 06:30:23;;;;;;;35.97;28.15;;;13.10;99.90;;;;;;5075307;28;20062;-57
2022/06/02 06:33:07;;;;;;;36.17;28.77;;;12.90;99.90;;;;;;5086357;28;20054;-58
2022/06/02 06:35:45;;;;;;;37.20;27.48;;;12.90;99.90;;;;;;5084066;28;20104;-57
2022/06/02 06:38:17;;;;;;;40.38;29.73;;;12.70;99.90;;;;;;5090023;28;20651;-58
2022/06/02 06:41:10;;;;;;;45.87;31.23;;;12.90;99.90;;;;;;5092767;28;20616;-57
2022/06/02 06:44:10;;;;;;;45.50;31.77;;;12.80;99.90;;;;;;5097344;28;20131;-58
2022/06/02 06:46:48;;;;;;;47.85;32.78;;;12.50;99.90;;;;;;5094563;28;20319;-58
2022/06/02 06:49:33;;;;;;;44.08;32.70;;;13.00;99.90;;;;;;5090528;28;20025;-57
2022/06/02 06:52:33;;;;;;;53.45;35.22;;;;;;;;;;5091413;28;20036;-57
2022/06/02 06:55:21;;;;;;;44.60;31.38;;;;;;;;;;5061827;28;20619;-58
2022/06/02 06:58:02;;;;;;;47.25;30.23;;;13.80;99.90;;;;;;5085085;28;20133;-58
2022/06/02 07:00:49;;;;;;;40.60;30.83;;;13.60;99.90;;;;;;5079476;28;20102;-57
2022/06/02 07:03:28;;;;;;;44.40;31.45;;;13.60;99.90;;;;;;5067800;28;20017;-58
2022/06/02 07:06:01;;;;;;;42.72;30.10;;;13.70;99.90;;;;;;5074063;28;20012;-57
2022/06/02 07:08:40;;;;;;;41.60;30.50;;;14.00;99.90;;;;;;5086789;28;20100;-58
2022/06/02 07:14:22;;;;;;;41.03;28.67;;;;;;;;;;5093023;28;20062;-56
2022/06/02 07:16:55;;;;;;;38.72;27.65;;;14.00;99.90;;;;;;5087728;28;20059;-59
2022/06/02 07:19:39;;;;;;;41.28;28.20;;;14.20;99.90;;;;;;5095255;28;20028;-58
2022/06/02 07:22:28;;;;;;;35.78;24.45;;;14.20;99.90;;;;;;5079825;28;20035;-58
2022/06/02 07:24:59;;;;;;;32.55;23.65;;;;;;;;;;5088121;28;20430;-58
2022/06/02 07:27:38;;;;;;;30.63;22.42;;;;;;;;;;5089932;28;20031;-57
2022/06/02 07:30:23;;;;;;;27.95;18.58;;;15.00;99.90;;;;;;5084146;28;20507;-59
2022/06/02 07:33:08;;;;;;;30.67;19.83;;;15.00;99.90;;;;;;5092106;28;20039;-59
2022/06/02 07:36:02;;;;;;;27.65;20.73;;;15.10;99.90;;;;;;5078342;28;20035;-58
2022/06/02 07:39:11;;;;;;;23.98;17.42;;;15.00;99.90;;;;;;5082050;28;20020;-57
2022/06/02 07:42:02;;;;;;;32.33;19.65;;;14.60;99.90;;;;;;5090658;28;20031;-57
2022/06/02 07:45:02;;;;;;;24.98;19.90;;;14.60;99.90;;;;;;5082851;28;20061;-58
2022/06/02 07:48:06;;;;;;;20.42;15.65;;;14.60;99.90;;;;;;5092018;28;20694;-58
2022/06/02 07:50:39;;;;;;;25.63;17.38;;;15.00;99.90;;;;;;5089776;28;20032;-58
2022/06/02 07:53:19;;;;;;;19.88;14.30;;;15.10;99.90;;;;;;5095703;28;20287;-59
2022/06/02 07:56:01;;;;;;;24.50;16.33;;;15.40;99.90;;;;;;5083392;28;20035;-57
2022/06/02 07:58:55;;;;;;;249.27;163.73;;;15.70;99.90;;;;;;5080779;28;20545;-59
2022/06/02 08:01:21;;;;;;;26.30;16.83;;;;;;;;;;5073958;28;20452;-58
2022/06/02 08:03:56;;;;;;;22.15;14.90;;;;;;;;;;5074843;28;20028;-59
2022/06/02 08:06:45;;;;;;;22.35;13.77;;;;;;;;;;5088267;28;20023;-59
2022/06/02 08:09:30;;;;;;;21.98;13.73;;;;;;;;;;5079380;28;20715;-58
2022/06/02 08:11:59;;;;;;;21.15;13.90;;;;;;;;;;5087406;28;20023;-58
2022/06/02 08:14:43;;;;;;;22.55;14.38;;;;;;;;;;5076883;28;20074;-59
2022/06/02 08:17:20;;;;;;;20.08;13.25;;;;;;;;;;5082212;28;20040;-58
2022/06/02 08:19:49;;;;;;;19.85;12.40;;;;;;;;;;5073972;28;20040;-59
2022/06/02 08:22:21;;;;;;;14.60;9.75;;;;;;;;;;5079844;28;20036;-58
2022/06/02 08:25:22;;;;;;;13.77;8.80;;;;;;;;;;5076875;28;20055;-60
2022/06/02 08:28:06;;;;;;;13.30;9.40;;;;;;;;;;5076358;28;20044;-60
2022/06/02 08:30:32;;;;;;;13.38;9.60;;;;;;;;;;5078971;28;20039;-59
2022/06/02 08:32:58;;;;;;;13.65;10.60;;;;;;;;;;5088791;28;20476;-59
2022/06/02 08:35:30;;;;;;;12.73;9.70;;;;;;;;;;5087244;28;20020;-58
2022/06/02 08:38:07;;;;;;;13.27;9.80;;;;;;;;;;5081076;28;20040;-58
2022/06/02 08:40:49;;;;;;;13.60;9.18;;;;;;;;;;5085106;28;20035;-59
2022/06/02 08:43:15;;;;;;;14.50;8.57;;;;;;;;;;5087979;28;20020;-58
2022/06/02 08:45:47;;;;;;;14.73;8.98;;;;;;;;;;5089332;28;20024;-59
2022/06/02 08:48:42;;;;;;;16.67;11.25;;;;;;;;;;5090335;28;20528;-58
2022/06/02 08:51:24;;;;;;;17.95;12.38;;;;;;;;;;5079968;28;20039;-60
2022/06/02 08:54:03;;;;;;;15.32;12.00;;;;;;;;;;5080529;28;20486;-59
2022/06/02 08:56:48;;;;;;;16.30;11.95;;;;;;;;;;5086720;28;20035;-58
2022/06/02 08:59:14;;;;;;;19.25;12.18;;;;;;;;;;5093180;28;20433;-59
2022/06/02 09:01:53;;;;;;;15.75;11.93;;;;;;;;;;5092918;28;20081;-60
2022/06/02 09:04:21;;;;;;;17.52;12.90;;;;;;;;;;5086760;28;20024;-59
2022/06/02 09:07:06;;;;;;;17.63;12.68;;;;;;;;;;5084707;28;20081;-60
2022/06/02 09:09:53;;;;;;;18.52;13.45;;;;;;;;;;5080667;28;20458;-59
2022/06/02 09:12:38;;;;;;;18.90;13.52;;;;;;;;;;5075071;28;20035;-59
2022/06/02 09:15:17;;;;;;;18.55;14.70;;;;;;;;;;5079904;28;20499;-59
2022/06/02 09:18:13;;;;;;;20.88;13.02;;;;;;;;;;5090335;28;20592;-59
2022/06/02 09:20:47;;;;;;;19.63;13.25;;;;;;;;;;5055916;28;20090;-59
2022/06/02 09:23:16;;;;;;;16.60;12.82;;;;;;;;;;5083130;28;20024;-59
2022/06/02 09:26:00;;;;;;;17.10;11.65;;;;;;;;;;5087751;28;20025;-59
2022/06/02 09:28:41;;;;;;;21.38;12.73;;;;;;;;;;5088967;28;20390;-59
2022/06/02 09:31:12;;;;;;;22.20;14.57;;;;;;;;;;5081025;28;20046;-59
2022/06/02 09:33:53;;;;;;;22.20;14.00;;;;;;;;;;5087909;28;20130;-59
2022/06/02 09:36:38;;;;;;;23.73;14.38;;;;;;;;;;5088476;28;20425;-60
2022/06/02 09:39:22;;;;;;;20.98;14.05;;;;;;;;;;5080365;28;20383;-59
2022/06/02 09:41:57;;;;;;;21.23;14.73;;;;;;;;;;5092957;28;20073;-60
2022/06/02 09:44:27;;;;;;;24.20;15.07;;;;;;;;;;5086466;28;20382;-60
2022/06/02 09:47:12;;;;;;;25.85;15.15;;;;;;;;;;5084023;28;20598;-60
2022/06/02 09:49:50;;;;;;;25.27;15.45;;;;;;;;;;5074705;28;20216;-59
2022/06/02 09:52:20;;;;;;;28.40;14.98;;;;;;;;;;5084677;28;20110;-59
2022/06/02 09:54:56;;;;;;;30.73;15.23;;;;;;;;;;5076534;28;20558;-59
2022/06/02 09:57:57;;;;;;;25.45;13.95;;;;;;;;;;5078260;28;20518;-59
2022/06/02 10:00:41;;;;;;;31.30;18.60;;;;;;;;;;5077554;28;20483;-58
2022/06/02 10:03:10;;;;;;;26.67;15.70;;;;;;;;;;5083062;28;20032;-58
2022/06/02 10:05:39;;;;;;;23.67;14.07;;;;;;;;;;5092199;28;20608;-59
2022/06/02 10:08:19;;;;;;;18.50;12.43;;;;;;;;;;5088301;28;20031;-59
2022/06/02 10:10:49;;;;;;;18.35;11.32;;;;;;;;;;5081989;28;20375;-57
2022/06/02 10:13:34;;;;;;;20.42;15.23;;;;;;;;;;5075716;28;20077;-61
2022/06/02 10:16:03;;;;;;;21.35;12.75;;;;;;;;;;5080285;28;20063;-59
2022/06/02 10:18:35;;;;;;;18.20;11.00;;;;;;;;;;5082045;28;20051;-58
2022/06/02 10:21:20;;;;;;;16.42;11.27;;;;;;;;;;5072789;28;20082;-59
2022/06/02 10:24:05;;;;;;;18.13;12.15;;;;;;;;;;5089066;28;20063;-59
2022/06/02 10:27:09;;;;;;;16.85;11.82;;;;;;;;;;5075110;28;20067;-60
2022/06/02 10:29:56;;;;;;;18.48;11.88;;;;;;;;;;5041944;28;20033;-60
2022/06/02 10:32:31;;;;;;;18.45;12.77;;;;;;;;;;5037830;28;20493;-58
2022/06/02 10:35:00;;;;;;;19.08;11.43;;;;;;;;;;5066998;28;20044;-60
2022/06/02 10:37:43;;;;;;;17.45;10.93;;;;;;;;;;5082821;28;20475;-59
2022/06/02 10:40:13;;;;;;;16.05;11.52;;;;;;;;;;5085193;28;20058;-60
2022/06/02 10:42:46;;;;;;;19.13;11.77;;;;;;;;;;5081467;28;20123;-59
2022/06/02 10:45:19;;;;;;;16.45;11.93;;;;;;;;;;5081612;28;20631;-59
2022/06/02 10:47:45;;;;;;;;;;;;;;;;;;5072033;28;20058;-60
2022/06/02 10:50:20;;;;;;;15.82;10.60;;;;;;;;;;5077837;28;19911;-60
2022/06/02 10:52:46;;;;;;;17.20;9.02;;;;;;;;;;5086150;28;20039;-58
2022/06/02 10:55:30;;;;;;;17.25;9.60;;;;;;;;;;5074697;28;20017;-59
2022/06/02 10:58:06;;;;;;;14.23;9.38;;;;;;;;;;5094477;28;20035;-59
2022/06/02 11:00:35;;;;;;;16.25;8.98;;;;;;;;;;5090815;28;20238;-59
2022/06/02 11:03:23;;;;;;;14.95;9.15;;;;;;;;;;5082389;28;20028;-60
2022/06/02 11:05:59;;;;;;;16.20;8.40;;;;;;;;;;5091885;28;20432;-59
2022/06/02 11:08:48;;;;;;;13.05;8.73;;;;;;;;;;5075984;28;20018;-58
2022/06/02 11:11:14;;;;;;;14.32;9.15;;;;;;;;;;5082875;28;20031;-60
2022/06/02 11:13:52;;;;;;;12.73;8.60;;;;;;;;;;5091011;28;20028;-59
2022/06/02 11:16:34;;;;;;;12.18;8.60;;;;;;;;;;5082353;28;20032;-60
2022/06/02 11:19:18;;;;;;;16.08;8.57;;;;;;;;;;5081576;28;20479;-60
2022/06/02 11:22:00;;;;;;;11.30;7.53;;;;;;;;;;5077660;28;20030;-59
2022/06/02 11:24:29;;;;;;;16.25;8.50;;;;;;;;;;5095954;28;20016;-59
2022/06/02 11:27:14;;;;;;;12.45;8.32;;;;;;;;;;5086750;28;20077;-59
2022/06/02 11:29:57;;;;;;;13.27;7.32;;;;;;;;;;5083114;28;20029;-59
2022/06/02 11:32:32;;;;;;;12.23;6.88;;;;;;;;;;5085084;28;20030;-59
2022/06/02 11:35:17;;;;;;;12.73;6.72;;;;;;;;;;5080587;28;20032;-59
2022/06/02 11:37:54;;;;;;;13.98;7.00;;;;;;;;;;5082535;28;20025;-60
2022/06/02 11:40:41;;;;;;;12.38;6.57;;;;;;;;;;5084690;28;20043;-61
2022/06/02 11:43:15;;;;;;;15.43;8.02;;;;;;;;;;5089425;28;20143;-59
2022/06/02 11:45:41;;;;;;;12.18;6.35;;;;;;;;;;5087762;28;20031;-60
2022/06/02 11:48:11;;;;;;;9.90;6.00;;;;;;;;;;5089850;28;20039;-59
2022/06/02 11:51:00;;;;;;;9.85;5.38;;;;;;;;;;5084113;28;20031;-61
2022/06/02 11:53:32;;;;;;;11.10;6.47;;;;;;;;;;5080717;28;20045;-60
2022/06/02 11:56:07;;;;;;;16.98;11.05;;;;;;;;;;5092793;28;20751;-59
2022/06/02 11:58:57;;;;;;;10.43;6.28;;;;;;;;;;5075553;28;20028;-59
2022/06/02 12:01:26;;;;;;;8.55;6.10;;;;;;;;;;5087378;28;20032;-59
2022/06/02 12:04:18;;;;;;;11.23;6.28;;;;;;;;;;5088543;28;20023;-60
2022/06/02 12:06:52;;;;;;;8.38;5.43;;;;;;;;;;5079063;28;20090;-61
2022/06/02 12:09:36;;;;;;;8.70;5.75;;;;;;;;;;5081594;28;20409;-60
2022/06/02 12:12:02;;;;;;;8.23;5.65;;;;;;;;;;5082605;28;20039;-60
2022/06/02 12:14:28;;;;;;;12.13;6.25;;;;;;;;;;5090098;28;20028;-59
2022/06/02 12:17:13;;;;;;;12.57;6.07;;;;;;;;;;5081412;28;20383;-60
2022/06/02 12:19:52;;;;;;;11.20;5.57;;;;;;;;;;5082549;28;20119;-61
2022/06/02 12:22:24;;;;;;;14.63;6.15;;;;;;;;;;5077329;28;20557;-60
2022/06/02 12:25:05;;;;;;;9.80;5.63;;;;;;;;;;5088666;28;20093;-61
2022/06/02 12:27:48;;;;;;;10.30;5.85;;;;;;;;;;5082722;28;20081;-60
2022/06/02 12:30:21;;;;;;;11.30;6.68;;;;;;;;;;5089602;28;20031;-60
2022/06/02 12:32:56;;;;;;;11.70;5.80;;;;;;;;;;5092089;28;20036;-60
2022/06/02 12:35:40;;;;;;;8.13;5.65;;;;;;;;;;5077338;28;20013;-60
2022/06/02 12:38:06;;;;;;;9.82;5.88;;;;;;;;;;5088901;28;20165;-60
2022/06/02 12:40:48;;;;;;;10.10;4.97;;;;;;;;;;5087601;28;20107;-59
2022/06/02 12:43:27;;;;;;;6.07;5.05;;;;;;;;;;5090822;28;20020;-58
2022/06/02 12:46:10;;;;;;;8.75;5.53;;;;;;;;;;5080154;28;20035;-60
2022/06/02 12:48:45;;;;;;;6.38;5.40;;;;;;;;;;5084050;28;21469;-59
2022/06/02 12:51:29;;;;;;;8.30;5.00;;;;;;;;;;5067783;28;20048;-59
2022/06/02 12:54:10;;;;;;;8.10;4.70;;;;;;;;;;5082133;28;20461;-59
2022/06/02 12:56:55;;;;;;;6.40;4.85;;;;;;;;;;5090225;28;20037;-59
2022/06/02 12:59:39;;;;;;;7.32;5.15;;;;;;;;;;5083232;28;20726;-60
2022/06/02 13:02:08;;;;;;;7.00;4.93;;;;;;;;;;5074907;28;20035;-59
2022/06/02 13:04:53;;;;;;;7.05;5.38;;;;;;;;;;5080676;28;20031;-60
2022/06/02 13:07:38;;;;;;;6.45;5.13;;;;;;;;;;5080116;28;20326;-60
2022/06/02 13:10:10;;;;;;;8.90;5.28;;;;;;;;;;5088237;28;20043;-60
2022/06/02 13:12:55;;;;;;;7.18;4.82;;;;;;;;;;5087195;28;20064;-59
2022/06/02 13:15:24;;;;;;;9.30;5.00;;;;;;;;;;5078355;28;20035;-60
2022/06/02 13:17:56;;;;;;;8.50;5.30;;;;;;;;;;5090112;28;20032;-60
2022/06/02 13:20:30;;;;;;;6.78;4.28;;;;;;;;;;5074617;28;20474;-60
2022/06/02 13:23:11;;;;;;;5.93;3.95;;;;;;;;;;5085526;28;20501;-60
2022/06/02 13:25:47;;;;;;;5.80;4.28;;;;;;;;;;5080231;28;20491;-59
2022/06/02 13:28:16;;;;;;;7.43;4.65;;;;;;;;;;5089057;28;20431;-59
2022/06/02 13:31:10;;;;;;;5.07;3.95;;;;;;;;;;5084128;28;20115;-59
2022/06/02 13:33:36;;;;;;;;;;;;;;;;;;5078530;28;20036;-58
2022/06/02 13:36:19;;;;;;;6.13;4.30;;;;;;;;;;5082377;28;19912;-59
2022/06/02 13:39:04;;;;;;;6.25;4.22;;;;;;;;;;5085458;28;20025;-60
2022/06/02 13:41:42;;;;;;;8.05;4.68;;;;;;;;;;5080882;28;20044;-60
2022/06/02 13:44:22;;;;;;;8.52;4.70;;;;;;;;;;5089990;28;20038;-60
2022/06/02 13:46:57;;;;;;;9.52;5.13;;;;;;;;;;5089287;28;20039;-61
2022/06/02 13:49:42;;;;;;;12.23;5.30;;;;;;;;;;5090879;28;20020;-61
2022/06/02 13:52:11;;;;;;;6.15;4.57;;;;;;;;;;5077066;28;20038;-60
2022/06/02 13:57:44;;;;;;;11.45;4.93;;;;;;;;;;5084579;28;20094;-60
2022/06/02 14:00:12;;;;;;;7.45;4.72;;;;;;;;;;5084711;28;20083;-60
2022/06/02 14:02:55;;;;;;;7.80;4.60;;;;;;;;;;5090989;28;20028;-60
2022/06/02 14:05:27;;;;;;;8.73;4.00;;;;;;;;;;5086365;28;20265;-60
2022/06/02 14:07:53;;;;;;;8.25;4.47;;;;;;;;;;5083708;28;20021;-60
2022/06/02 14:10:25;;;;;;;6.80;4.60;;;;;;;;;;5085676;28;20024;-60
2022/06/02 14:13:11;;;;;;;5.65;3.80;;;;;;;;;;5083014;28;20028;-61
2022/06/02 14:16:02;;;;;;;7.50;4.20;;;;;;;;;;5075373;28;20036;-61
2022/06/02 14:18:51;;;;;;;6.35;4.80;;;;;;;;;;5079379;28;20468;-60
2022/06/02 14:21:24;;;;;;;6.63;5.10;;;;;;;;;;5076094;28;20046;-61
2022/06/02 14:24:00;;;;;;;8.20;5.25;;;;;;;;;;5087165;28;20035;-59
2022/06/02 14:26:37;;;;;;;7.88;4.57;;;;;;;;;;5081198;28;20128;-60
2022/06/02 14:29:26;;;;;;;9.23;4.88;;;;;;;;;;5074076;28;20059;-60
2022/06/02 14:31:55;;;;;;;6.07;5.07;;;;;;;;;;5082040;28;20031;-60
2022/06/02 14:34:33;;;;;;;9.20;5.00;;;;;;;;;;5085283;28;20549;-59
2022/06/02 14:37:02;;;;;;;6.57;4.50;;;;;;;;;;5083696;28;20054;-60
2022/06/02 14:39:49;;;;;;;7.15;4.20;;;;;;;;;;5081921;28;20048;-60
2022/06/02 14:45:23;;;;;;;5.63;3.93;;;;;;;;;;5083678;28;20027;-60
2022/06/02 14:48:00;;;;;;;6.45;3.78;;;;;;;;;;5082383;28;20035;-61
2022/06/02 14:50:31;;;;;;;7.80;4.20;;;;;;;;;;5081287;28;20382;-60
2022/06/02 14:52:57;;;;;;;4.35;3.58;;;;;;;;;;5090388;28;20024;-60
2022/06/02 14:55:33;;;;;;;5.22;4.18;;;;;;;;;;5094570;28;20028;-61
2022/06/02 14:58:19;;;;;;;5.57;3.92;;;;;;;;;;5079082;28;20497;-61
2022/06/02 15:00:57;;;;;;;6.60;3.72;;;;;;;;;;5080354;28;20035;-61
2022/06/02 15:03:35;;;;;;;5.30;4.20;;;;;;;;;;5089246;28;20464;-61
2022/06/02 15:06:02;;;;;;;6.35;3.80;;;;;;;;;;5086083;28;20024;-61
2022/06/02 15:08:38;;;;;;;5.45;4.13;;;;;;;;;;5081053;28;20028;-60
2022/06/02 15:11:10;;;;;;;5.40;4.15;;;;;;;;;;5087768;28;20024;-61
2022/06/02 15:16:23;;;;;;;5.95;3.75;;;;;;;;;;5084943;28;20034;-61
2022/06/02 15:19:06;;;;;;;8.27;4.25;;;;;;;;;;5093179;28;20046;-62
2022/06/02 15:21:41;;;;;;;8.98;3.92;;;;;;;;;;5089714;28;20024;-61
2022/06/02 15:24:29;;;;;;;6.50;3.60;;;;;;;;;;5089764;28;20029;-62
2022/06/02 15:27:05;;;;;;;9.35;4.20;;;;;;;;;;5084664;28;20386;-60
2022/06/02 15:29:50;;;;;;;5.10;3.60;;;;;;;;;;5095744;28;20039;-61
2022/06/02 15:32:16;;;;;;;6.22;3.72;;;;;;;;;;5083517;28;20040;-62